createdAt,value
2017-11-10T00:02:06.046Z,48.63
2017-11-10T00:04:35.233Z,52.10
2017-11-10T00:07:04.108Z,59.53
2017-11-10T00:09:32.972Z,55.73
2017-11-10T00:12:01.842Z,58.50
2017-11-10T00:14:30.690Z,62.73
2017-11-10T00:16:59.563Z,72.57
2017-11-10T00:19:28.494Z,69.60
2017-11-10T00:21:57.382Z,67.33
2017-11-10T00:24:26.251Z,73.73
2017-11-10T00:26:55.092Z,67.67
2017-11-10T00:29:23.940Z,69.37
2017-11-10T00:31:52.823Z,70.43
2017-11-10T00:34:21.710Z,71.30
2017-11-10T00:36:51.284Z,65.40
2017-11-10T00:39:20.200Z,77.03
2017-11-10T00:41:49.046Z,72.27
2017-11-10T00:44:17.899Z,86.40
2017-11-10T00:46:46.755Z,81.30
2017-11-10T00:49:15.592Z,84.20
2017-11-10T00:51:44.460Z,82.00
2017-11-10T00:54:13.337Z,75.80
2017-11-10T00:56:42.211Z,80.80
2017-11-10T00:59:11.075Z,80.90
2017-11-10T01:01:39.955Z,78.40
2017-11-10T01:04:09.559Z,79.13
2017-11-10T01:06:40.263Z,78.83
2017-11-10T01:09:09.186Z,76.67
2017-11-10T01:11:38.032Z,76.07
2017-11-10T01:14:06.887Z,80.13
2017-11-10T01:16:35.770Z,79.07
2017-11-10T01:19:04.621Z,75.70
2017-11-10T01:21:33.466Z,82.50
2017-11-10T01:24:02.339Z,82.97
2017-11-10T01:26:31.221Z,88.00
2017-11-10T01:29:00.065Z,90.87
2017-11-10T01:31:28.952Z,86.40
2017-11-10T01:33:57.796Z,81.80
2017-11-10T01:36:26.642Z,83.03
2017-11-10T01:38:55.510Z,81.47
2017-11-10T01:41:24.357Z,88.23
2017-11-10T01:43:53.212Z,83.97
2017-11-10T01:46:22.073Z,83.30
2017-11-10T01:48:51.865Z,87.73
2017-11-10T01:51:20.745Z,89.50
2017-11-10T01:53:49.637Z,84.07
2017-11-10T01:56:18.517Z,91.80
2017-11-10T01:58:47.364Z,87.20
2017-11-10T02:01:16.247Z,89.37
2017-11-10T02:03:45.089Z,82.80
2017-11-10T02:06:13.945Z,90.83
2017-11-10T02:08:42.812Z,89.60
2017-11-10T02:11:11.657Z,94.97
2017-11-10T02:13:41.181Z,96.53
2017-11-10T02:16:10.083Z,97.20
2017-11-10T02:18:38.937Z,88.20
2017-11-10T02:21:07.793Z,90.23
2017-11-10T02:23:36.681Z,89.47
2017-11-10T02:26:05.563Z,85.93
2017-11-10T02:28:34.434Z,100.57
2017-11-10T02:31:03.344Z,102.20
2017-11-10T02:33:32.194Z,100.27
2017-11-10T02:36:01.046Z,95.70
2017-11-10T02:38:29.985Z,102.33
2017-11-10T02:40:59.653Z,97.27
2017-11-10T02:43:28.507Z,96.37
2017-11-10T02:45:57.378Z,99.60
2017-11-10T02:48:26.245Z,97.97
2017-11-10T02:50:55.094Z,94.03
2017-11-10T02:53:24.066Z,96.50
2017-11-10T02:55:52.965Z,100.17
2017-11-10T02:58:21.869Z,94.60
2017-11-10T03:00:51.707Z,99.77
2017-11-10T03:03:20.581Z,104.33
2017-11-10T03:05:49.435Z,101.03
2017-11-10T03:08:18.317Z,89.77
2017-11-10T03:10:47.172Z,100.03
2017-11-10T03:13:16.030Z,109.73
2017-11-10T03:15:45.538Z,103.63
2017-11-10T03:18:14.401Z,104.50
2017-11-10T03:20:43.358Z,100.57
2017-11-10T03:23:12.231Z,103.23
2017-11-10T03:25:41.141Z,106.73
2017-11-10T03:28:10.056Z,109.03
2017-11-10T03:30:39.096Z,107.10
2017-11-10T03:33:07.977Z,108.63
2017-11-10T03:35:36.865Z,105.33
2017-11-10T03:38:05.987Z,99.13
2017-11-10T03:40:35.669Z,109.07
2017-11-10T03:43:04.547Z,96.87
2017-11-10T03:45:33.454Z,109.80
2017-11-10T03:48:03.259Z,109.33
2017-11-10T03:50:32.097Z,107.87
2017-11-10T03:53:00.967Z,100.87
2017-11-10T03:55:30.576Z,103.40
2017-11-10T03:57:59.434Z,99.13
2017-11-10T04:00:28.325Z,108.47
2017-11-10T04:02:57.195Z,101.23
2017-11-10T04:05:26.152Z,95.63
2017-11-10T04:07:55.042Z,102.30
2017-11-10T04:10:23.907Z,102.40
2017-11-10T04:12:52.805Z,105.77
2017-11-10T04:15:21.697Z,94.37
2017-11-10T04:17:50.576Z,107.00
2017-11-10T04:20:19.493Z,117.20
2017-11-10T04:22:48.366Z,94.47
2017-11-10T04:25:17.217Z,88.97
2017-11-10T04:27:46.083Z,93.03
2017-11-10T04:30:14.966Z,85.67
2017-11-10T04:32:43.853Z,82.67
2017-11-10T04:35:12.697Z,83.80
2017-11-10T04:37:42.430Z,88.80
2017-11-10T04:40:11.305Z,92.23
2017-11-10T04:42:40.163Z,85.53
2017-11-10T04:45:09.035Z,99.80
2017-11-10T04:47:37.884Z,89.83
2017-11-10T04:50:06.731Z,92.57
2017-11-10T04:52:35.598Z,84.33
2017-11-10T04:55:04.491Z,83.87
2017-11-10T04:57:33.344Z,92.70
2017-11-10T05:00:03.227Z,80.13
2017-11-10T05:02:32.089Z,81.50
2017-11-10T05:05:00.925Z,90.53
2017-11-10T05:07:30.548Z,98.13
2017-11-10T05:09:59.403Z,97.70
2017-11-10T05:12:28.250Z,101.17
2017-11-10T05:14:57.121Z,89.50
2017-11-10T05:17:25.974Z,87.93
2017-11-10T05:19:54.863Z,82.33
2017-11-10T05:22:23.740Z,88.97
2017-11-10T05:24:52.580Z,84.80
2017-11-10T05:27:22.128Z,87.37
2017-11-10T05:29:51.043Z,74.27
2017-11-10T05:32:20.509Z,75.50
2017-11-10T05:34:49.367Z,71.40
2017-11-10T05:37:18.239Z,67.40
2017-11-10T05:39:47.107Z,61.93
2017-11-10T05:42:15.995Z,60.37
2017-11-10T05:44:44.859Z,60.53
2017-11-10T05:47:13.716Z,64.03
2017-11-10T05:49:42.568Z,54.83
2017-11-10T05:52:11.502Z,57.60
2017-11-10T05:54:40.398Z,53.37
2017-11-10T05:57:09.252Z,53.73
2017-11-10T05:59:38.142Z,54.67
2017-11-10T06:02:07.029Z,59.80
2017-11-10T06:04:35.893Z,54.93
2017-11-10T06:07:04.782Z,55.10
2017-11-10T06:09:33.632Z,58.90
2017-11-10T06:12:02.494Z,56.07
2017-11-10T06:14:31.441Z,59.13
2017-11-10T06:17:00.289Z,55.07
2017-11-10T06:19:29.177Z,60.23
2017-11-10T06:21:58.103Z,63.43
2017-11-10T06:24:26.966Z,63.17
2017-11-10T06:26:55.813Z,75.57
2017-11-10T06:29:24.686Z,70.67
2017-11-10T06:31:53.521Z,59.37
2017-11-10T06:34:22.425Z,56.77
2017-11-10T06:36:51.300Z,68.37
2017-11-10T06:39:20.174Z,67.57
2017-11-10T06:41:49.829Z,74.20
2017-11-10T06:44:18.775Z,65.97
2017-11-10T06:46:47.626Z,58.23
2017-11-10T06:49:16.471Z,69.80
2017-11-10T06:51:45.348Z,66.40
2017-11-10T06:54:14.198Z,63.97
2017-11-10T06:56:43.053Z,63.50
2017-11-10T06:59:11.958Z,63.40
2017-11-10T07:01:40.807Z,64.90
2017-11-10T07:04:10.448Z,59.97
2017-11-10T07:06:39.351Z,70.57
2017-11-10T07:09:08.248Z,57.67
2017-11-10T07:11:37.102Z,55.20
2017-11-10T07:14:05.990Z,63.60
2017-11-10T07:16:34.836Z,59.20
2017-11-10T07:19:03.689Z,56.90
2017-11-10T07:21:32.582Z,61.53
2017-11-10T07:24:01.987Z,57.33
2017-11-10T07:26:30.998Z,55.57
2017-11-10T07:28:59.878Z,61.67
2017-11-10T07:31:28.731Z,62.70
2017-11-10T07:33:57.580Z,62.67
2017-11-10T07:36:26.480Z,56.10
2017-11-10T07:38:55.338Z,60.93
2017-11-10T07:41:24.192Z,55.83
2017-11-10T07:43:53.089Z,58.80
2017-11-10T07:46:21.968Z,58.80
2017-11-10T07:48:50.801Z,57.10
2017-11-10T07:51:19.668Z,61.27
2017-11-10T07:53:48.536Z,61.10
2017-11-10T07:56:17.399Z,64.73
2017-11-10T07:58:46.278Z,58.10
2017-11-10T08:01:15.123Z,61.03
2017-11-10T08:03:43.988Z,56.07
2017-11-10T08:06:12.875Z,54.83
2017-11-10T08:08:41.753Z,46.70
2017-11-10T08:11:10.599Z,54.87
2017-11-10T08:13:39.487Z,53.33
2017-11-10T08:16:08.333Z,53.77
2017-11-10T08:18:37.202Z,63.93
2017-11-10T08:21:06.128Z,51.43
2017-11-10T08:23:35.628Z,58.50
2017-11-10T08:26:04.499Z,50.10
2017-11-10T08:28:33.387Z,54.87
2017-11-10T08:31:02.882Z,47.97
2017-11-10T08:33:31.804Z,45.87
2017-11-10T08:36:00.708Z,50.00
2017-11-10T08:38:29.559Z,49.10
2017-11-10T08:40:58.422Z,42.90
2017-11-10T08:43:27.281Z,47.23
2017-11-10T08:45:56.136Z,48.07
2017-11-10T08:48:24.982Z,46.57
2017-11-10T08:50:53.867Z,47.20
2017-11-10T08:53:22.758Z,46.40
2017-11-10T08:55:52.495Z,43.77
2017-11-10T08:58:21.394Z,38.97
2017-11-10T09:00:50.285Z,44.83
2017-11-10T09:03:19.155Z,42.73
2017-11-10T09:05:48.036Z,40.83
2017-11-10T09:08:16.879Z,43.57
2017-11-10T09:10:45.725Z,42.50
2017-11-10T09:13:14.602Z,44.40
2017-11-10T09:15:43.474Z,43.60
2017-11-10T09:18:12.324Z,46.53
2017-11-10T09:20:41.993Z,45.90
2017-11-10T09:23:10.837Z,38.03
2017-11-10T09:25:39.725Z,34.97
2017-11-10T09:28:27.346Z,34.97
2017-11-10T09:31:12.071Z,37.40
2017-11-10T09:33:46.806Z,44.20
2017-11-10T09:36:15.670Z,43.37
2017-11-10T09:38:47.144Z,38.13
2017-11-10T09:41:16.834Z,37.07
2017-11-10T09:44:02.375Z,44.80
2017-11-10T09:46:35.881Z,36.97
2017-11-10T09:49:05.805Z,41.37
2017-11-10T09:51:40.505Z,38.13
2017-11-10T09:54:14.069Z,38.13
2017-11-10T09:56:44.511Z,41.77
2017-11-10T09:59:15.381Z,42.40
2017-11-10T10:01:49.939Z,34.80
2017-11-10T10:04:31.535Z,31.97
2017-11-10T10:07:02.090Z,41.67
2017-11-10T10:09:36.741Z,28.87
2017-11-10T10:12:09.271Z,27.90
2017-11-10T10:14:53.084Z,27.53
2017-11-10T10:17:27.748Z,25.30
2017-11-10T10:20:11.509Z,28.53
2017-11-10T10:22:40.345Z,27.73
2017-11-10T10:25:09.205Z,31.10
2017-11-10T10:27:38.087Z,34.23
2017-11-10T10:30:06.945Z,33.10
2017-11-10T10:32:35.835Z,33.10
2017-11-10T10:35:04.703Z,42.70
2017-11-10T10:37:33.552Z,35.10
2017-11-10T10:40:03.098Z,37.73
2017-11-10T10:42:31.988Z,33.97
2017-11-10T10:45:00.873Z,36.43
2017-11-10T10:47:29.718Z,32.33
2017-11-10T10:49:58.596Z,31.40
2017-11-10T10:52:27.454Z,33.17
2017-11-10T10:54:56.295Z,31.00
2017-11-10T10:57:25.874Z,27.97
2017-11-10T10:59:54.719Z,36.23
2017-11-10T11:02:24.505Z,29.03
2017-11-10T11:04:54.361Z,30.33
2017-11-10T11:07:23.221Z,27.97
2017-11-10T11:09:52.067Z,27.23
2017-11-10T11:12:21.836Z,30.13
2017-11-10T11:14:51.514Z,33.93
2017-11-10T11:17:20.949Z,31.53
2017-11-10T11:19:49.785Z,33.40
2017-11-10T11:22:18.654Z,30.53
2017-11-10T11:24:48.241Z,32.27
2017-11-10T11:27:17.113Z,31.30
2017-11-10T11:29:45.961Z,30.57
2017-11-10T11:32:14.888Z,31.57
2017-11-10T11:34:43.757Z,32.60
2017-11-10T11:37:12.605Z,30.63
2017-11-10T11:39:41.494Z,31.33
2017-11-10T11:42:10.355Z,30.43
2017-11-10T11:44:39.379Z,32.73
2017-11-10T11:47:08.248Z,32.87
2017-11-10T11:49:37.113Z,30.80
2017-11-10T11:52:06.885Z,30.67
2017-11-10T11:54:35.794Z,28.10
2017-11-10T11:57:04.641Z,28.17
2017-11-10T11:59:33.501Z,32.73
2017-11-10T12:02:02.708Z,34.17
2017-11-10T12:04:31.581Z,30.63
2017-11-10T12:07:00.432Z,25.67
2017-11-10T12:09:29.340Z,25.37
2017-11-10T12:11:58.187Z,26.67
2017-11-10T12:14:27.034Z,24.53
2017-11-10T12:16:56.519Z,23.83
2017-11-10T12:19:25.367Z,20.03
2017-11-10T12:21:54.286Z,21.37
2017-11-10T12:24:23.158Z,11.50
2017-11-10T12:26:52.008Z,11.50
2017-11-10T12:29:20.849Z,12.13
2017-11-10T12:31:49.730Z,10.10
2017-11-10T12:34:18.594Z,10.23
2017-11-10T12:36:47.434Z,8.33
2017-11-10T12:39:16.303Z,8.47
2017-11-10T12:41:45.461Z,12.00
2017-11-10T12:44:14.298Z,7.37
2017-11-10T12:46:43.184Z,6.90
2017-11-10T12:49:12.119Z,12.63
2017-11-10T12:51:40.978Z,5.93
2017-11-10T12:54:09.849Z,9.17
2017-11-10T12:56:38.696Z,8.47
2017-11-10T12:59:08.337Z,6.90
2017-11-10T13:01:39.283Z,8.93
2017-11-10T13:04:08.192Z,9.30
2017-11-10T13:06:37.053Z,8.07
2017-11-10T13:09:05.925Z,10.73
2017-11-10T13:11:34.971Z,7.13
2017-11-10T13:14:03.821Z,7.17
2017-11-10T13:16:32.705Z,11.57
2017-11-10T13:19:01.562Z,5.83
2017-11-10T13:21:30.413Z,9.73
2017-11-10T13:23:59.839Z,11.00
2017-11-10T13:26:28.714Z,9.30
2017-11-10T13:28:57.751Z,9.70
2017-11-10T13:31:26.630Z,9.43
2017-11-10T13:33:55.469Z,10.07
2017-11-10T13:36:24.303Z,10.80
2017-11-10T13:38:53.230Z,7.00
2017-11-10T13:41:22.121Z,8.30
2017-11-10T13:43:50.964Z,7.37
2017-11-10T13:46:19.827Z,14.07
2017-11-10T13:48:48.689Z,8.73
2017-11-10T13:51:17.553Z,12.23
2017-11-10T13:53:46.415Z,8.83
2017-11-10T13:56:15.297Z,9.50
2017-11-10T13:58:44.137Z,7.47
2017-11-10T14:01:12.995Z,9.83
2017-11-10T14:03:41.837Z,9.03
2017-11-10T14:06:10.696Z,12.37
2017-11-10T14:08:39.581Z,8.97
2017-11-10T14:11:08.893Z,9.80
2017-11-10T14:13:37.735Z,10.47
2017-11-10T14:16:06.625Z,9.47
2017-11-10T14:18:35.471Z,7.93
2017-11-10T14:21:04.387Z,11.30
2017-11-10T14:23:33.274Z,10.23
2017-11-10T14:26:02.119Z,9.10
2017-11-10T14:28:30.961Z,9.07
2017-11-10T14:30:59.823Z,10.43
2017-11-10T14:33:28.705Z,10.07
2017-11-10T14:35:57.562Z,14.93
2017-11-10T14:38:26.443Z,9.53
2017-11-10T14:40:55.279Z,9.40
2017-11-10T14:43:24.115Z,6.63
2017-11-10T14:45:52.968Z,8.90
2017-11-10T14:48:21.895Z,10.67
2017-11-10T14:50:50.736Z,8.70
2017-11-10T14:53:19.612Z,9.43
2017-11-10T14:55:48.455Z,7.20
2017-11-10T14:58:17.354Z,18.33
2017-11-10T15:00:46.255Z,11.37
2017-11-10T15:03:15.649Z,14.00
2017-11-10T15:05:44.518Z,15.67
2017-11-10T15:08:13.421Z,13.57
2017-11-10T15:10:43.006Z,7.83
2017-11-10T15:13:11.843Z,12.67
2017-11-10T15:15:40.783Z,13.43
2017-11-10T15:18:09.624Z,10.67
2017-11-10T15:20:38.958Z,13.33
2017-11-10T15:23:07.832Z,12.30
2017-11-10T15:25:36.671Z,8.67
2017-11-10T15:28:05.521Z,11.03
2017-11-10T15:30:34.386Z,15.93
2017-11-10T15:33:03.298Z,9.70
2017-11-10T15:35:32.141Z,15.03
2017-11-10T15:38:02.549Z,13.70
2017-11-10T15:40:31.825Z,12.37
2017-11-10T15:43:00.673Z,9.10
2017-11-10T15:45:29.535Z,12.50
2017-11-10T15:47:58.374Z,12.50
2017-11-10T15:50:28.078Z,17.47
2017-11-10T15:52:56.982Z,14.17
2017-11-10T15:55:25.820Z,13.40
2017-11-10T15:57:54.658Z,10.80
2017-11-10T16:00:23.541Z,10.80
2017-11-10T16:02:52.401Z,12.57
2017-11-10T16:05:21.276Z,10.90
2017-11-10T16:07:50.207Z,13.57
2017-11-10T16:10:19.051Z,11.43
2017-11-10T16:12:47.906Z,14.23
2017-11-10T16:15:17.612Z,11.23
2017-11-10T16:17:46.494Z,11.30
2017-11-10T16:20:15.367Z,18.03
2017-11-10T16:22:45.094Z,17.17
2017-11-10T16:25:13.962Z,10.83
2017-11-10T16:27:42.799Z,13.20
2017-11-10T16:30:11.660Z,16.37
2017-11-10T16:32:40.494Z,12.40
2017-11-10T16:35:09.380Z,10.97
2017-11-10T16:37:38.302Z,14.30
2017-11-10T16:40:07.177Z,13.00
2017-11-10T16:42:36.015Z,8.83
2017-11-10T16:45:04.992Z,11.03
2017-11-10T16:47:33.848Z,17.87
2017-11-10T16:50:02.696Z,15.73
2017-11-10T16:52:31.567Z,11.50
2017-11-10T16:55:00.406Z,12.77
2017-11-10T16:57:29.293Z,12.83
2017-11-10T16:59:58.155Z,18.57
2017-11-10T17:02:27.691Z,12.63
2017-11-10T17:04:56.534Z,11.87
2017-11-10T17:07:25.405Z,15.33
2017-11-10T17:09:54.298Z,12.47
2017-11-10T17:12:23.146Z,15.30
2017-11-10T17:14:52.033Z,10.93
2017-11-10T17:17:20.910Z,12.40
2017-11-10T17:19:50.830Z,13.63
2017-11-10T17:22:21.057Z,14.33
2017-11-10T17:24:50.638Z,20.13
2017-11-10T17:27:19.494Z,16.27
2017-11-10T17:29:48.379Z,17.43
2017-11-10T17:32:17.249Z,13.17
2017-11-10T17:34:46.093Z,13.53
2017-11-10T17:37:14.994Z,12.10
2017-11-10T17:39:43.834Z,11.20
2017-11-10T17:42:12.690Z,15.13
2017-11-10T17:44:42.398Z,13.77
2017-11-10T17:47:11.581Z,10.50
2017-11-10T17:49:40.441Z,16.73
2017-11-10T17:52:09.332Z,15.67
2017-11-10T17:54:38.171Z,13.30
2017-11-10T17:57:07.809Z,16.73
2017-11-10T17:59:36.718Z,10.47
2017-11-10T18:02:05.559Z,18.37
2017-11-10T18:04:34.406Z,11.73
2017-11-10T18:07:03.361Z,12.00
2017-11-10T18:09:33.142Z,7.30
2017-11-10T18:12:02.004Z,8.50
2017-11-10T18:14:30.879Z,14.13
2017-11-10T18:16:59.722Z,10.33
2017-11-10T18:19:28.586Z,7.03
2017-11-10T18:21:57.459Z,5.57
2017-11-10T18:24:26.341Z,6.97
2017-11-10T18:26:55.206Z,9.20
2017-11-10T18:29:24.069Z,10.20
2017-11-10T18:31:52.922Z,8.43
2017-11-10T18:34:25.669Z,11.43
2017-11-10T18:36:54.845Z,11.10
2017-11-10T18:39:23.731Z,8.33
2017-11-10T18:41:52.561Z,9.27
2017-11-10T18:44:21.819Z,11.70
2017-11-10T18:46:51.487Z,10.67
2017-11-10T18:49:27.027Z,11.83
2017-11-10T18:51:55.900Z,9.23
2017-11-10T18:54:24.752Z,10.10
2017-11-10T18:56:53.946Z,16.63
2017-11-10T18:59:22.781Z,12.43
2017-11-10T19:01:55.529Z,10.07
2017-11-10T19:04:24.410Z,9.43
2017-11-10T19:06:53.250Z,12.40
2017-11-10T19:09:22.183Z,16.03
2017-11-10T19:11:51.091Z,13.37
2017-11-10T19:14:19.958Z,12.63
2017-11-10T19:16:48.902Z,10.60
2017-11-10T19:19:17.781Z,17.53
2017-11-10T19:21:47.330Z,11.27
2017-11-10T19:24:16.222Z,11.80
2017-11-10T19:26:45.149Z,21.70
2017-11-10T19:29:13.997Z,12.87
2017-11-10T19:31:42.867Z,14.77
2017-11-10T19:34:11.761Z,14.80
2017-11-10T19:36:40.608Z,12.40
2017-11-10T19:39:09.477Z,11.37
2017-11-10T19:41:38.578Z,13.30
2017-11-10T19:44:07.440Z,12.20
2017-11-10T19:46:36.311Z,13.37
2017-11-10T19:49:05.205Z,12.17
2017-11-10T19:51:34.097Z,11.37
2017-11-10T19:54:02.951Z,9.53
2017-11-10T19:56:31.837Z,9.57
2017-11-10T19:59:00.689Z,7.10
2017-11-10T20:01:29.577Z,11.10
2017-11-10T20:03:58.477Z,10.57
2017-11-10T20:06:27.313Z,9.67
2017-11-10T20:08:56.201Z,9.90
2017-11-10T20:11:25.109Z,13.30
2017-11-10T20:13:53.987Z,13.57
2017-11-10T20:16:22.866Z,15.30
2017-11-10T20:18:52.487Z,8.37
2017-11-10T20:21:21.333Z,13.53
2017-11-10T20:23:50.169Z,9.90
2017-11-10T20:26:19.069Z,11.60
2017-11-10T20:28:47.957Z,12.40
2017-11-10T20:31:16.820Z,8.00
2017-11-10T20:33:46.552Z,9.40
2017-11-10T20:36:15.419Z,15.23
2017-11-10T20:38:44.267Z,11.63
2017-11-10T20:41:13.150Z,11.20
2017-11-10T20:43:41.999Z,11.20
2017-11-10T20:46:10.848Z,10.17
2017-11-10T20:48:39.729Z,9.53
2017-11-10T20:51:08.583Z,9.17
2017-11-10T20:53:38.059Z,9.70
2017-11-10T20:56:06.923Z,13.33
2017-11-10T20:58:35.786Z,9.87
2017-11-10T21:01:04.637Z,10.00
2017-11-10T21:03:33.536Z,11.17
2017-11-10T21:06:03.177Z,12.23
2017-11-10T21:08:32.035Z,16.53
2017-11-10T21:11:01.206Z,11.43
2017-11-10T21:13:30.072Z,11.47
2017-11-10T21:15:58.918Z,11.50
2017-11-10T21:18:27.790Z,9.57
2017-11-10T21:20:56.685Z,10.03
2017-11-10T21:23:26.281Z,9.63
2017-11-10T21:25:55.177Z,17.60
2017-11-10T21:28:24.141Z,11.27
2017-11-10T21:30:52.991Z,14.47
2017-11-10T21:33:21.867Z,12.03
2017-11-10T21:35:50.705Z,15.10
2017-11-10T21:38:19.620Z,15.63
2017-11-10T21:40:48.521Z,13.93
2017-11-10T21:43:17.618Z,14.93
2017-11-10T21:45:46.575Z,11.97
2017-11-10T21:48:15.786Z,18.17
2017-11-10T21:50:44.672Z,13.00
2017-11-10T21:53:13.937Z,12.37
2017-11-10T21:55:46.629Z,10.97
2017-11-10T21:58:15.512Z,14.20
2017-11-10T22:00:44.635Z,11.27
2017-11-10T22:03:13.652Z,17.20
2017-11-10T22:05:42.631Z,12.53
2017-11-10T22:08:11.537Z,12.07
2017-11-10T22:10:41.007Z,8.77
2017-11-10T22:13:09.869Z,16.37
2017-11-10T22:15:39.817Z,10.23
2017-11-10T22:18:08.685Z,16.03
2017-11-10T22:20:37.589Z,13.77
2017-11-10T22:23:06.790Z,16.60
2017-11-10T22:25:35.647Z,17.87
2017-11-10T22:28:04.517Z,12.43
2017-11-10T22:30:33.499Z,12.27
2017-11-10T22:33:02.396Z,9.13
2017-11-10T22:35:31.291Z,14.83
2017-11-10T22:38:00.292Z,14.10
2017-11-10T22:40:29.938Z,10.70
2017-11-10T22:42:58.827Z,11.67
2017-11-10T22:45:28.615Z,12.90
2017-11-10T22:47:57.487Z,22.47
2017-11-10T22:50:27.172Z,16.57
2017-11-10T22:52:56.029Z,18.03
2017-11-10T22:55:25.733Z,19.93
2017-11-10T22:57:54.584Z,13.27
2017-11-10T23:00:23.505Z,17.13
2017-11-10T23:02:52.373Z,12.00
2017-11-10T23:05:21.249Z,13.83
2017-11-10T23:07:50.128Z,18.93
2017-11-10T23:10:18.972Z,20.67
2017-11-10T23:12:47.809Z,16.23
2017-11-10T23:15:16.693Z,11.33
2017-11-10T23:17:46.148Z,16.97
2017-11-10T23:20:15.049Z,15.23
2017-11-10T23:22:43.920Z,14.07
2017-11-10T23:25:12.776Z,10.63
2017-11-10T23:27:41.631Z,17.60
2017-11-10T23:30:10.512Z,18.53
2017-11-10T23:32:39.354Z,13.57
2017-11-10T23:35:08.192Z,12.97
2017-11-10T23:37:37.361Z,15.67
2017-11-10T23:40:06.263Z,17.23
2017-11-10T23:42:35.153Z,15.13
2017-11-10T23:47:39.188Z,14.13
2017-11-10T23:50:08.588Z,15.83
2017-11-10T23:52:37.458Z,13.40
2017-11-10T23:55:06.317Z,22.67
2017-11-10T23:57:35.203Z,18.87
